createdAt,value
2022-11-16T00:01:37.739Z,34.65
2022-11-16T00:04:19.316Z,35.50
2022-11-16T00:06:49.087Z,37.83
2022-11-16T00:09:23.645Z,34.65
2022-11-16T00:11:53.193Z,33.72
2022-11-16T00:14:22.034Z,35.05
2022-11-16T00:16:49.526Z,33.38
2022-11-16T00:19:17.193Z,34.42
2022-11-16T00:21:44.539Z,35.22
2022-11-16T00:24:14.285Z,33.88
2022-11-16T00:26:42.105Z,32.58
2022-11-16T00:29:22.955Z,32.63
2022-11-16T00:31:50.896Z,33.00
2022-11-16T00:34:18.609Z,31.45
2022-11-16T00:36:46.481Z,33.15
2022-11-16T00:39:15.551Z,34.25
2022-11-16T00:41:43.805Z,32.05
2022-11-16T00:44:11.585Z,31.90
2022-11-16T00:46:39.689Z,34.15
2022-11-16T00:49:07.527Z,32.53
2022-11-16T00:51:36.084Z,34.85
2022-11-16T00:54:05.444Z,33.33
2022-11-16T00:56:36.600Z,33.47
2022-11-16T00:59:04.622Z,30.20
2022-11-16T01:01:32.810Z,32.80
2022-11-16T01:04:00.091Z,31.95
2022-11-16T01:06:27.330Z,33.25
2022-11-16T01:08:54.529Z,33.75
2022-11-16T01:11:43.804Z,32.78
2022-11-16T01:14:11.151Z,32.53
2022-11-16T01:16:38.253Z,32.13
2022-11-16T01:19:05.724Z,32.75
2022-11-16T01:21:33.105Z,31.23
2022-11-16T01:24:00.773Z,30.33
2022-11-16T01:26:28.023Z,27.42
2022-11-16T01:28:55.203Z,27.95
2022-11-16T01:32:25.276Z,26.67
2022-11-16T01:34:53.385Z,25.50
2022-11-16T01:37:26.415Z,25.98
2022-11-16T01:39:54.172Z,25.92
2022-11-16T01:42:24.853Z,26.23
2022-11-16T01:45:00.620Z,27.88
2022-11-16T01:47:28.737Z,25.80
2022-11-16T01:50:07.850Z,31.90
2022-11-16T01:52:42.631Z,26.00
2022-11-16T01:55:11.311Z,25.60
2022-11-16T01:57:49.265Z,25.45
2022-11-16T02:00:17.745Z,26.42
2022-11-16T02:02:55.404Z,25.95
2022-11-16T02:05:54.203Z,26.52
2022-11-16T02:08:51.632Z,26.25
2022-11-16T02:11:29.191Z,25.08
2022-11-16T02:14:18.920Z,25.98
2022-11-16T02:17:04.005Z,25.50
2022-11-16T02:20:16.066Z,24.17
2022-11-16T02:23:02.928Z,26.60
2022-11-16T02:25:59.715Z,25.40
2022-11-16T02:28:31.819Z,22.63
2022-11-16T02:31:03.960Z,23.83
2022-11-16T02:33:37.270Z,23.13
2022-11-16T02:36:09.421Z,24.73
2022-11-16T02:38:40.538Z,25.15
2022-11-16T02:41:12.102Z,24.58
2022-11-16T02:43:43.490Z,25.85
2022-11-16T02:46:17.736Z,25.80
2022-11-16T02:48:50.050Z,26.10
2022-11-16T02:51:19.555Z,28.50
2022-11-16T02:54:05.519Z,25.60
2022-11-16T02:56:43.421Z,25.38
2022-11-16T02:59:17.381Z,24.90
2022-11-16T03:02:00.746Z,25.73
2022-11-16T03:04:41.579Z,23.98
2022-11-16T03:07:12.992Z,23.10
2022-11-16T03:09:41.859Z,24.58
2022-11-16T03:12:15.103Z,24.30
2022-11-16T03:14:48.812Z,24.13
2022-11-16T03:17:22.711Z,25.50
2022-11-16T03:19:56.196Z,25.13
2022-11-16T03:22:30.668Z,25.38
2022-11-16T03:27:35.388Z,24.67
2022-11-16T03:30:03.727Z,23.90
2022-11-16T03:32:54.135Z,24.58
2022-11-16T03:35:27.766Z,25.52
2022-11-16T03:37:58.755Z,25.25
2022-11-16T03:40:30.671Z,24.90
2022-11-16T03:43:01.056Z,25.25
2022-11-16T03:45:30.178Z,23.48
2022-11-16T03:47:57.370Z,22.75
2022-11-16T03:50:25.397Z,24.90
2022-11-16T03:52:53.498Z,24.77
2022-11-16T03:55:20.755Z,22.10
2022-11-16T03:57:47.847Z,23.38
2022-11-16T04:00:15.676Z,22.60
2022-11-16T04:02:43.805Z,22.20
2022-11-16T04:05:37.269Z,22.88
2022-11-16T04:08:24.868Z,23.33
2022-11-16T04:11:12.560Z,22.15
2022-11-16T04:13:59.607Z,23.95
2022-11-16T04:16:48.123Z,24.38
2022-11-16T04:19:35.258Z,22.85
2022-11-16T04:22:30.014Z,23.38
2022-11-16T04:25:04.946Z,23.13
2022-11-16T04:27:52.667Z,22.65
2022-11-16T04:30:20.218Z,20.33
2022-11-16T04:33:08.269Z,20.98
2022-11-16T04:35:55.661Z,21.40
2022-11-16T04:38:23.631Z,20.30
2022-11-16T04:40:50.704Z,20.02
2022-11-16T04:43:17.976Z,20.55
2022-11-16T04:46:05.890Z,20.67
2022-11-16T04:48:38.965Z,19.83
2022-11-16T04:51:06.852Z,19.58
2022-11-16T04:53:34.712Z,18.92
2022-11-16T04:56:11.416Z,19.27
2022-11-16T04:58:38.583Z,19.98
2022-11-16T05:01:05.828Z,19.15
2022-11-16T05:03:33.536Z,20.02
2022-11-16T05:06:01.576Z,19.52
2022-11-16T05:08:29.412Z,20.30
2022-11-16T05:10:57.498Z,19.77
2022-11-16T05:13:24.544Z,20.75
2022-11-16T05:15:53.129Z,18.73
2022-11-16T05:18:20.167Z,18.80
2022-11-16T05:21:04.316Z,19.95
2022-11-16T05:23:56.740Z,20.25
2022-11-16T05:26:28.579Z,19.38
2022-11-16T05:28:55.874Z,19.38
2022-11-16T05:31:23.067Z,20.52
2022-11-16T05:33:50.324Z,18.63
2022-11-16T05:36:18.986Z,20.77
2022-11-16T05:38:46.272Z,20.08
2022-11-16T05:41:14.540Z,19.13
2022-11-16T05:43:43.038Z,19.52
2022-11-16T05:46:16.354Z,19.73
2022-11-16T05:48:43.855Z,20.67
2022-11-16T05:51:10.947Z,19.20
2022-11-16T05:53:38.787Z,19.42
2022-11-16T05:56:07.513Z,19.52
2022-11-16T05:58:38.600Z,21.08
2022-11-16T06:01:06.242Z,20.83
2022-11-16T06:03:35.674Z,21.73
2022-11-16T06:06:04.745Z,19.98
2022-11-16T06:08:32.663Z,19.40
2022-11-16T06:11:04.665Z,20.05
2022-11-16T06:13:33.321Z,20.35
2022-11-16T06:16:02.416Z,20.35
2022-11-16T06:18:32.083Z,20.13
2022-11-16T06:20:59.413Z,21.17
2022-11-16T06:23:26.603Z,22.00
2022-11-16T06:25:55.375Z,20.40
2022-11-16T06:28:24.878Z,18.75
2022-11-16T06:30:51.961Z,20.85
2022-11-16T06:33:19.923Z,20.95
2022-11-16T06:35:47.281Z,20.00
2022-11-16T06:38:19.187Z,20.63
2022-11-16T06:40:52.946Z,19.73
2022-11-16T06:43:21.883Z,20.25
2022-11-16T06:45:51.337Z,20.02
2022-11-16T06:48:19.394Z,21.13
2022-11-16T06:50:50.624Z,21.58
2022-11-16T06:53:21.628Z,19.75
2022-11-16T06:55:51.977Z,19.33
2022-11-16T06:58:19.976Z,18.55
2022-11-16T07:00:47.048Z,20.23
2022-11-16T07:03:15.668Z,20.30
2022-11-16T07:05:44.018Z,18.50
2022-11-16T07:08:14.607Z,19.13
2022-11-16T07:10:41.729Z,18.65
2022-11-16T07:13:08.824Z,21.55
2022-11-16T07:15:38.435Z,19.55
2022-11-16T07:18:07.145Z,20.88
2022-11-16T07:20:38.110Z,19.77
2022-11-16T07:23:07.146Z,17.92
2022-11-16T07:25:37.901Z,21.48
2022-11-16T07:28:06.375Z,19.85
2022-11-16T07:30:34.547Z,17.90
2022-11-16T07:33:21.443Z,19.98
2022-11-16T07:36:11.984Z,18.88
2022-11-16T07:38:39.541Z,18.73
2022-11-16T07:41:09.886Z,19.77
2022-11-16T07:43:40.657Z,20.08
2022-11-16T07:49:05.878Z,18.02
2022-11-16T07:51:49.241Z,20.17
2022-11-16T07:54:30.892Z,21.10
2022-11-16T07:56:58.519Z,18.70
2022-11-16T07:59:25.720Z,19.50
2022-11-16T08:01:53.079Z,20.33
2022-11-16T08:04:20.259Z,20.10
2022-11-16T08:06:51.786Z,18.25
2022-11-16T08:09:20.457Z,21.45
2022-11-16T08:11:51.058Z,21.73
2022-11-16T08:14:19.370Z,20.75
2022-11-16T08:16:48.856Z,21.35
2022-11-16T08:19:17.465Z,21.38
2022-11-16T08:21:45.859Z,21.05
2022-11-16T08:24:15.329Z,20.08
2022-11-16T08:26:44.429Z,22.55
2022-11-16T08:29:15.227Z,21.83
2022-11-16T08:31:47.978Z,21.75
2022-11-16T08:34:18.658Z,20.75
2022-11-16T08:36:49.693Z,21.00
2022-11-16T08:39:18.733Z,20.00
2022-11-16T08:41:45.851Z,21.65
2022-11-16T08:44:15.454Z,22.45
2022-11-16T08:46:46.653Z,23.25
2022-11-16T08:49:28.943Z,20.75
2022-11-16T08:51:56.714Z,20.92
2022-11-16T08:54:23.836Z,21.77
2022-11-16T08:56:50.820Z,23.33
2022-11-16T08:59:19.409Z,23.20
2022-11-16T09:01:50.462Z,21.85
2022-11-16T09:04:18.771Z,22.60
2022-11-16T09:06:46.433Z,22.25
2022-11-16T09:09:13.561Z,23.35
2022-11-16T09:11:40.612Z,23.65
2022-11-16T09:14:07.694Z,24.95
2022-11-16T09:16:34.858Z,24.02
2022-11-16T09:19:02.202Z,23.40
2022-11-16T09:21:30.406Z,22.33
2022-11-16T09:23:58.293Z,22.02
2022-11-16T09:26:26.383Z,23.85
2022-11-16T09:28:57.010Z,24.55
2022-11-16T09:31:27.562Z,22.92
2022-11-16T09:33:58.527Z,22.02
2022-11-16T09:36:27.734Z,22.27
2022-11-16T09:39:25.734Z,22.73
2022-11-16T09:42:18.096Z,21.90
2022-11-16T09:44:59.568Z,22.92
2022-11-16T09:47:35.866Z,22.08
2022-11-16T09:50:06.050Z,23.35
2022-11-16T09:52:34.221Z,22.55
2022-11-16T09:55:17.446Z,23.02
2022-11-16T09:57:45.233Z,22.98
2022-11-16T10:00:18.148Z,23.67
2022-11-16T10:02:50.413Z,22.70
2022-11-16T10:05:24.559Z,21.90
2022-11-16T10:07:59.318Z,23.52
2022-11-16T10:10:35.024Z,23.20
2022-11-16T10:13:29.648Z,21.70
2022-11-16T10:16:04.696Z,22.75
2022-11-16T10:18:48.853Z,22.73
2022-11-16T10:21:23.027Z,21.20
2022-11-16T10:24:03.403Z,22.88
2022-11-16T10:26:40.641Z,21.85
2022-11-16T10:29:15.459Z,22.92
2022-11-16T10:31:46.933Z,23.35
2022-11-16T10:34:22.790Z,22.13
2022-11-16T10:36:49.935Z,23.73
2022-11-16T10:39:20.696Z,23.48
2022-11-16T10:41:50.981Z,23.35
2022-11-16T10:44:39.339Z,24.35
2022-11-16T10:47:12.553Z,23.83
2022-11-16T10:50:00.760Z,21.33
2022-11-16T10:52:28.619Z,22.83
2022-11-16T10:54:55.728Z,23.95
2022-11-16T10:57:24.996Z,23.27
2022-11-16T10:59:55.673Z,22.17
2022-11-16T11:02:31.392Z,23.17
2022-11-16T11:05:02.882Z,22.60
2022-11-16T11:07:32.629Z,22.27
2022-11-16T11:10:00.003Z,23.05
2022-11-16T11:12:43.482Z,22.42
2022-11-16T11:15:11.619Z,22.27
2022-11-16T11:17:41.092Z,21.75
2022-11-16T11:20:21.943Z,21.90
2022-11-16T11:22:53.529Z,23.00
2022-11-16T11:25:20.663Z,24.15
2022-11-16T11:27:47.983Z,22.85
2022-11-16T11:30:22.963Z,22.95
2022-11-16T11:32:52.969Z,23.05
2022-11-16T11:35:26.367Z,23.45
2022-11-16T11:37:56.734Z,23.85
2022-11-16T11:40:27.749Z,22.88
2022-11-16T11:42:58.289Z,23.77
2022-11-16T11:45:33.243Z,22.20
2022-11-16T11:48:17.933Z,23.15
2022-11-16T11:50:51.560Z,23.50
2022-11-16T11:53:27.784Z,17.67
2022-11-16T11:55:58.636Z,23.33
2022-11-16T11:58:32.479Z,22.75
2022-11-16T12:01:25.512Z,22.90
2022-11-16T12:04:20.213Z,22.42
2022-11-16T12:06:58.990Z,16.87
2022-11-16T12:09:57.860Z,21.50
2022-11-16T12:12:33.462Z,20.58
2022-11-16T12:15:21.463Z,23.20
2022-11-16T12:17:53.049Z,22.73
2022-11-16T12:20:32.635Z,22.67
2022-11-16T12:23:11.820Z,23.10
2022-11-16T12:26:06.126Z,23.00
2022-11-16T12:28:34.221Z,21.98
2022-11-16T12:31:15.415Z,22.10
2022-11-16T12:33:53.966Z,22.67
2022-11-16T12:36:33.096Z,23.42
2022-11-16T12:39:25.386Z,22.38
2022-11-16T12:41:57.028Z,22.83
2022-11-16T12:44:32.079Z,24.33
2022-11-16T12:47:18.897Z,23.65
2022-11-16T12:49:55.820Z,23.63
2022-11-16T12:52:37.917Z,23.65
2022-11-16T12:55:26.319Z,24.42
2022-11-16T12:58:33.940Z,24.23
2022-11-16T13:01:08.511Z,23.55
2022-11-16T13:06:12.365Z,22.60
2022-11-16T13:08:55.421Z,20.95
2022-11-16T13:11:25.649Z,20.67
2022-11-16T13:13:59.261Z,20.90
2022-11-16T13:16:27.640Z,21.00
2022-11-16T13:18:55.965Z,18.90
2022-11-16T13:21:39.894Z,19.13
2022-11-16T13:24:33.651Z,18.77
2022-11-16T13:27:36.569Z,18.25
2022-11-16T13:30:06.207Z,18.17
2022-11-16T13:32:35.013Z,17.85
2022-11-16T13:35:05.355Z,18.10
2022-11-16T13:37:39.957Z,17.90
2022-11-16T13:42:53.897Z,17.33
2022-11-16T13:45:23.035Z,16.98
2022-11-16T13:47:52.536Z,17.25
2022-11-16T13:50:22.442Z,18.83
2022-11-16T13:55:46.510Z,16.27
2022-11-16T13:58:21.742Z,18.65
2022-11-16T14:01:10.842Z,21.00
2022-11-16T14:03:40.346Z,18.48
2022-11-16T14:06:28.389Z,18.50
2022-11-16T14:08:56.861Z,17.17
2022-11-16T14:11:39.929Z,19.00
2022-11-16T14:14:12.904Z,18.63
2022-11-16T14:16:45.738Z,17.83
2022-11-16T14:19:52.060Z,18.25
2022-11-16T14:22:44.996Z,18.70
2022-11-16T14:25:28.577Z,18.83
2022-11-16T14:28:14.766Z,17.35
2022-11-16T14:31:06.185Z,18.25
2022-11-16T14:33:36.847Z,17.50
2022-11-16T14:36:07.788Z,17.73
2022-11-16T14:38:40.171Z,17.73
2022-11-16T14:41:18.163Z,18.20
2022-11-16T14:43:50.602Z,16.42
2022-11-16T14:46:27.910Z,18.27
2022-11-16T14:48:58.230Z,17.77
2022-11-16T14:51:31.184Z,18.75
2022-11-16T14:54:03.852Z,18.55
2022-11-16T14:56:30.928Z,17.90
2022-11-16T14:59:00.432Z,18.13
2022-11-16T15:01:34.220Z,18.30
2022-11-16T15:04:04.423Z,19.67
2022-11-16T15:06:41.931Z,19.63
2022-11-16T15:09:17.315Z,19.73
2022-11-16T15:12:08.089Z,18.13
2022-11-16T15:14:41.749Z,18.58
2022-11-16T15:17:09.931Z,18.77
2022-11-16T15:19:37.031Z,19.38
2022-11-16T15:22:05.380Z,19.73
2022-11-16T15:24:34.582Z,19.02
2022-11-16T15:27:11.686Z,20.38
2022-11-16T15:29:39.389Z,19.30
2022-11-16T15:32:12.525Z,19.60
2022-11-16T15:34:39.780Z,19.40
2022-11-16T15:37:11.488Z,17.98
2022-11-16T15:39:39.738Z,16.88
2022-11-16T15:42:12.859Z,17.75
2022-11-16T15:44:41.164Z,19.33
2022-11-16T15:47:13.286Z,21.55
2022-11-16T15:49:42.008Z,21.25
2022-11-16T15:52:09.101Z,20.55
2022-11-16T15:54:59.046Z,21.17
2022-11-16T15:57:26.412Z,21.02
2022-11-16T15:59:56.053Z,23.50
2022-11-16T16:02:27.753Z,22.55
2022-11-16T16:04:55.085Z,21.85
2022-11-16T16:07:39.693Z,22.52
2022-11-16T16:12:53.093Z,21.60
2022-11-16T16:15:30.240Z,22.00
2022-11-16T16:17:59.027Z,24.80
2022-11-16T16:20:29.466Z,26.13
2022-11-16T16:23:16.413Z,24.20
2022-11-16T16:25:49.056Z,22.13
2022-11-16T16:28:17.552Z,14.45
2022-11-16T16:30:44.607Z,21.27
2022-11-16T16:33:19.406Z,21.85
2022-11-16T16:35:49.823Z,29.75
2022-11-16T16:38:17.095Z,28.25
2022-11-16T16:40:44.153Z,32.10
2022-11-16T16:43:11.141Z,30.38
2022-11-16T16:45:41.702Z,25.17
2022-11-16T16:48:09.736Z,23.30
2022-11-16T16:50:37.206Z,22.00
2022-11-16T16:53:04.840Z,22.33
2022-11-16T16:55:37.035Z,21.40
2022-11-16T16:58:06.019Z,18.98
2022-11-16T17:00:33.457Z,18.52
2022-11-16T17:03:00.588Z,17.23
2022-11-16T17:05:27.591Z,17.45
2022-11-16T17:07:56.328Z,17.30
2022-11-16T17:10:23.727Z,18.15
2022-11-16T17:12:54.016Z,18.25
2022-11-16T17:15:21.170Z,17.85
2022-11-16T17:17:48.322Z,18.52
2022-11-16T17:20:16.397Z,18.88
2022-11-16T17:22:43.742Z,18.00
2022-11-16T17:25:11.192Z,17.65
2022-11-16T17:27:38.362Z,18.65
2022-11-16T17:30:05.990Z,18.95
2022-11-16T17:32:34.242Z,18.67
2022-11-16T17:35:01.310Z,19.15
2022-11-16T17:37:29.205Z,19.95
2022-11-16T17:39:57.036Z,19.58
2022-11-16T17:42:24.947Z,19.65
2022-11-16T17:44:54.138Z,19.25
2022-11-16T17:47:22.158Z,20.02
2022-11-16T17:49:49.493Z,19.30
2022-11-16T17:52:16.752Z,20.55
2022-11-16T17:54:43.923Z,19.00
2022-11-16T17:57:11.110Z,20.63
2022-11-16T17:59:38.191Z,20.42
2022-11-16T18:02:05.477Z,21.85
2022-11-16T18:04:32.727Z,20.85
2022-11-16T18:07:01.341Z,21.42
2022-11-16T18:09:28.486Z,20.42
2022-11-16T18:11:56.157Z,21.40
2022-11-16T18:14:23.412Z,20.83
2022-11-16T18:16:50.923Z,20.17
2022-11-16T18:19:18.931Z,19.13
2022-11-16T18:21:47.087Z,18.63
2022-11-16T18:24:14.255Z,18.00
2022-11-16T18:26:42.103Z,18.75
2022-11-16T18:29:12.827Z,19.17
2022-11-16T18:31:40.806Z,24.98
2022-11-16T18:34:08.488Z,31.58
2022-11-16T18:36:35.668Z,41.03
2022-11-16T18:39:03.157Z,36.85
2022-11-16T18:41:31.056Z,44.05
2022-11-16T18:44:00.512Z,46.03
2022-11-16T18:46:30.423Z,45.85
2022-11-16T18:48:58.100Z,42.28
2022-11-16T18:51:27.468Z,38.08
2022-11-16T18:53:55.571Z,39.13
2022-11-16T18:56:23.957Z,37.08
2022-11-16T18:58:52.982Z,29.60
2022-11-16T19:01:23.859Z,25.88
2022-11-16T19:03:53.002Z,23.30
2022-11-16T19:06:21.726Z,23.80
2022-11-16T19:08:55.885Z,24.15
2022-11-16T19:11:24.935Z,26.05
2022-11-16T19:13:55.864Z,27.75
2022-11-16T19:16:24.233Z,28.08
2022-11-16T19:18:51.501Z,25.40
2022-11-16T19:21:18.765Z,27.98
2022-11-16T19:23:47.953Z,24.70
2022-11-16T19:26:16.826Z,22.40
2022-11-16T19:28:45.831Z,25.90
2022-11-16T19:31:15.945Z,23.50
2022-11-16T19:33:44.612Z,24.08
2022-11-16T19:36:17.046Z,24.70
2022-11-16T19:38:46.004Z,23.13
2022-11-16T19:41:15.016Z,24.58
2022-11-16T19:43:42.853Z,24.50
2022-11-16T19:46:12.429Z,25.08
2022-11-16T19:48:39.890Z,24.77
2022-11-16T19:51:09.809Z,23.85
2022-11-16T19:53:37.288Z,24.55
2022-11-16T19:56:05.949Z,24.95
2022-11-16T19:58:37.150Z,25.90
2022-11-16T20:01:08.023Z,26.63
2022-11-16T20:03:38.368Z,25.90
2022-11-16T20:06:09.562Z,23.45
2022-11-16T20:08:38.464Z,23.17
2022-11-16T20:11:15.201Z,23.17
2022-11-16T20:13:43.013Z,23.00
2022-11-16T20:16:12.613Z,23.63
2022-11-16T20:18:41.557Z,21.75
2022-11-16T20:21:12.523Z,19.20
2022-11-16T20:23:39.806Z,18.92
2022-11-16T20:26:09.686Z,19.65
2022-11-16T20:28:39.477Z,20.42
2022-11-16T20:31:16.806Z,20.50
2022-11-16T20:33:51.962Z,20.38
2022-11-16T20:36:20.316Z,20.77
2022-11-16T20:38:47.831Z,21.38
2022-11-16T20:41:18.019Z,20.17
2022-11-16T20:43:46.605Z,19.65
2022-11-16T20:46:16.684Z,20.58
2022-11-16T20:48:44.963Z,21.25
2022-11-16T20:51:15.061Z,21.20
2022-11-16T20:53:43.128Z,20.58
2022-11-16T20:56:11.517Z,20.27
2022-11-16T20:58:38.987Z,19.40
2022-11-16T21:01:08.481Z,21.77
2022-11-16T21:03:35.971Z,18.95
2022-11-16T21:06:03.819Z,18.88
2022-11-16T21:08:31.194Z,20.42
2022-11-16T21:10:58.647Z,19.77
2022-11-16T21:13:45.848Z,20.58
2022-11-16T21:16:16.008Z,21.30
2022-11-16T21:18:43.185Z,23.67
2022-11-16T21:21:13.574Z,21.55
2022-11-16T21:23:45.065Z,21.65
2022-11-16T21:26:14.980Z,20.60
2022-11-16T21:28:45.457Z,23.60
2022-11-16T21:31:15.376Z,22.73
2022-11-16T21:33:44.549Z,21.83
2022-11-16T21:36:14.165Z,23.00
2022-11-16T21:38:42.550Z,23.58
2022-11-16T21:41:11.585Z,24.17
2022-11-16T21:43:40.941Z,28.23
2022-11-16T21:46:11.750Z,24.73
2022-11-16T21:48:39.476Z,24.05
2022-11-16T21:51:08.679Z,22.60
2022-11-16T21:53:37.292Z,22.75
2022-11-16T21:56:06.500Z,22.83
2022-11-16T21:58:33.632Z,23.25
2022-11-16T22:01:02.391Z,22.85
2022-11-16T22:03:31.188Z,21.75
2022-11-16T22:06:20.152Z,22.75
2022-11-16T22:08:48.587Z,22.02
2022-11-16T22:11:17.212Z,22.50
2022-11-16T22:13:44.707Z,21.85
2022-11-16T22:16:15.244Z,23.50
2022-11-16T22:18:43.088Z,27.45
2022-11-16T22:21:11.513Z,29.17
2022-11-16T22:23:39.007Z,37.47
2022-11-16T22:26:08.597Z,39.13
2022-11-16T22:28:36.870Z,30.75
2022-11-16T22:31:07.394Z,30.23
2022-11-16T22:33:35.412Z,28.63
2022-11-16T22:36:03.142Z,27.30
2022-11-16T22:38:30.785Z,26.95
2022-11-16T22:40:58.090Z,26.25
2022-11-16T22:43:27.521Z,23.73
2022-11-16T22:45:59.314Z,23.00
2022-11-16T22:48:31.682Z,20.60
2022-11-16T22:51:05.237Z,20.27
2022-11-16T22:53:32.897Z,21.33
2022-11-16T22:56:07.973Z,22.08
2022-11-16T22:58:36.627Z,20.52
2022-11-16T23:01:04.843Z,22.65
2022-11-16T23:03:32.272Z,19.60
2022-11-16T23:05:59.927Z,21.05
2022-11-16T23:08:27.370Z,20.20
2022-11-16T23:11:25.520Z,21.63
2022-11-16T23:14:13.841Z,20.85
2022-11-16T23:16:42.302Z,21.65
2022-11-16T23:19:31.287Z,21.40
2022-11-16T23:22:18.817Z,21.38
2022-11-16T23:25:06.207Z,22.38
2022-11-16T23:27:53.933Z,22.63
2022-11-16T23:30:21.711Z,22.85
2022-11-16T23:32:48.774Z,23.17
2022-11-16T23:35:16.264Z,21.83
2022-11-16T23:38:02.524Z,22.92
2022-11-16T23:40:32.382Z,21.20
2022-11-16T23:43:19.678Z,24.10
2022-11-16T23:45:47.153Z,23.65
2022-11-16T23:48:16.593Z,24.80
2022-11-16T23:50:44.953Z,25.48
2022-11-16T23:53:12.777Z,23.88
2022-11-16T23:55:40.393Z,25.73
2022-11-16T23:58:13.418Z,24.90
